createdAt,value
2023-01-06T00:01:07.318Z,2.13
2023-01-06T00:03:35.469Z,2.27
2023-01-06T00:06:05.625Z,1.90
2023-01-06T00:08:35.449Z,2.00
2023-01-06T00:11:06.878Z,1.53
2023-01-06T00:13:35.031Z,1.97
2023-01-06T00:16:06.287Z,2.20
2023-01-06T00:18:34.735Z,1.90
2023-01-06T00:21:03.237Z,1.90
2023-01-06T00:23:31.672Z,2.03
2023-01-06T00:26:01.199Z,1.63
2023-01-06T00:28:29.942Z,1.70
2023-01-06T00:30:58.475Z,1.60
2023-01-06T00:33:26.798Z,1.73
2023-01-06T00:36:00.150Z,2.10
2023-01-06T00:38:28.276Z,1.80
2023-01-06T00:40:57.059Z,1.70
2023-01-06T00:43:27.641Z,2.00
2023-01-06T00:45:55.815Z,2.03
2023-01-06T00:48:23.920Z,1.60
2023-01-06T00:50:52.122Z,1.93
2023-01-06T00:53:20.314Z,2.40
2023-01-06T00:55:48.452Z,2.53
2023-01-06T00:58:16.540Z,1.67
2023-01-06T01:00:46.022Z,1.93
2023-01-06T01:03:14.231Z,1.97
2023-01-06T01:05:42.400Z,1.70
2023-01-06T01:08:10.569Z,2.07
2023-01-06T01:10:38.701Z,1.70
2023-01-06T01:13:06.847Z,1.70
2023-01-06T01:15:35.033Z,2.40
2023-01-06T01:18:04.647Z,1.43
2023-01-06T01:20:32.797Z,1.63
2023-01-06T01:23:00.963Z,1.63
2023-01-06T01:25:29.112Z,1.77
2023-01-06T01:27:57.214Z,2.10
2023-01-06T01:30:25.342Z,2.03
2023-01-06T01:32:53.445Z,1.73
2023-01-06T01:35:22.964Z,1.87
2023-01-06T01:37:51.081Z,2.03
2023-01-06T01:40:19.364Z,1.47
2023-01-06T01:42:47.487Z,1.70
2023-01-06T01:45:24.730Z,2.33
2023-01-06T01:47:57.007Z,1.63
2023-01-06T01:50:31.197Z,1.80
2023-01-06T01:53:04.947Z,1.97
2023-01-06T01:55:33.917Z,3.83
2023-01-06T01:58:04.742Z,3.20
2023-01-06T02:00:32.890Z,1.83
2023-01-06T02:03:01.298Z,1.50
2023-01-06T02:05:32.162Z,2.00
2023-01-06T02:08:06.560Z,1.90
2023-01-06T02:10:34.722Z,2.27
2023-01-06T02:13:08.795Z,1.60
2023-01-06T02:15:38.525Z,1.87
2023-01-06T02:18:24.040Z,1.63
2023-01-06T02:21:15.891Z,1.80
2023-01-06T02:24:07.653Z,1.77
2023-01-06T02:27:17.507Z,1.60
2023-01-06T02:30:43.424Z,1.90
2023-01-06T02:33:21.320Z,1.80
2023-01-06T02:36:06.359Z,1.87
2023-01-06T02:38:42.013Z,1.33
2023-01-06T02:41:21.778Z,1.83
2023-01-06T02:44:01.703Z,2.40
2023-01-06T02:46:48.526Z,1.87
2023-01-06T02:49:27.597Z,3.20
2023-01-06T02:52:02.097Z,1.90
2023-01-06T02:54:39.982Z,1.37
2023-01-06T02:57:17.290Z,2.63
2023-01-06T02:59:53.204Z,1.60
2023-01-06T03:02:22.125Z,1.83
2023-01-06T03:04:54.459Z,2.00
2023-01-06T03:07:25.725Z,1.60
2023-01-06T03:09:56.059Z,1.80
2023-01-06T03:12:31.763Z,1.50
2023-01-06T03:15:00.611Z,1.80
2023-01-06T03:17:29.366Z,2.27
2023-01-06T03:20:02.081Z,1.70
2023-01-06T03:22:31.004Z,2.10
2023-01-06T03:25:00.005Z,1.57
2023-01-06T03:27:28.810Z,1.70
2023-01-06T03:29:58.061Z,3.07
2023-01-06T03:32:31.744Z,1.80
2023-01-06T03:35:18.980Z,1.53
2023-01-06T03:37:54.637Z,1.67
2023-01-06T03:40:33.802Z,1.40
2023-01-06T03:43:12.405Z,1.60
2023-01-06T03:45:54.506Z,1.87
2023-01-06T03:48:37.636Z,1.53
2023-01-06T03:51:17.065Z,1.57
2023-01-06T03:53:54.541Z,1.50
2023-01-06T03:56:27.912Z,1.67
2023-01-06T03:58:59.224Z,1.40
2023-01-06T04:01:28.477Z,2.30
2023-01-06T04:03:57.745Z,2.50
2023-01-06T04:06:30.601Z,1.50
2023-01-06T04:09:00.072Z,1.40
2023-01-06T04:11:46.155Z,1.53
2023-01-06T04:14:14.787Z,1.80
2023-01-06T04:16:45.919Z,1.60
2023-01-06T04:19:14.094Z,2.23
2023-01-06T04:21:43.627Z,1.77
2023-01-06T04:24:12.561Z,1.43
2023-01-06T04:26:40.661Z,1.83
2023-01-06T04:29:08.893Z,2.27
2023-01-06T04:31:38.060Z,1.77
2023-01-06T04:34:07.182Z,1.47
2023-01-06T04:36:35.724Z,1.40
2023-01-06T04:39:05.344Z,1.63
2023-01-06T04:41:33.465Z,1.60
2023-01-06T04:44:01.766Z,1.60
2023-01-06T04:46:29.913Z,1.77
2023-01-06T04:48:58.020Z,1.53
2023-01-06T04:51:26.206Z,1.40
2023-01-06T04:53:54.325Z,1.70
2023-01-06T04:56:25.939Z,1.27
2023-01-06T04:58:55.963Z,1.40
2023-01-06T05:01:25.587Z,1.40
2023-01-06T05:03:54.075Z,2.03
2023-01-06T05:06:22.507Z,1.43
2023-01-06T05:08:50.740Z,1.70
2023-01-06T05:11:20.937Z,1.70
2023-01-06T05:13:51.053Z,2.20
2023-01-06T05:16:21.880Z,1.80
2023-01-06T05:18:50.027Z,2.57
2023-01-06T05:21:18.527Z,2.30
2023-01-06T05:23:47.023Z,4.30
2023-01-06T05:26:19.157Z,2.10
2023-01-06T05:28:47.620Z,1.90
2023-01-06T05:31:17.259Z,3.13
2023-01-06T05:33:45.528Z,2.00
2023-01-06T05:36:16.235Z,3.33
2023-01-06T05:38:44.469Z,2.10
2023-01-06T05:41:12.561Z,2.50
2023-01-06T05:43:40.741Z,2.10
2023-01-06T05:46:11.044Z,1.73
2023-01-06T05:48:42.398Z,1.70
2023-01-06T05:51:13.151Z,1.60
2023-01-06T05:53:42.860Z,1.63
2023-01-06T05:56:12.880Z,2.20
2023-01-06T05:58:41.791Z,1.80
2023-01-06T06:01:17.358Z,1.60
2023-01-06T06:03:47.456Z,1.57
2023-01-06T06:06:16.109Z,1.87
2023-01-06T06:08:44.433Z,2.40
2023-01-06T06:11:15.013Z,1.50
2023-01-06T06:13:47.535Z,1.97
2023-01-06T06:16:18.500Z,1.83
2023-01-06T06:18:51.083Z,1.90
2023-01-06T06:21:20.996Z,1.60
2023-01-06T06:23:49.717Z,1.93
2023-01-06T06:26:18.039Z,1.73
2023-01-06T06:28:46.201Z,2.33
2023-01-06T06:31:16.299Z,1.80
2023-01-06T06:33:44.618Z,1.90
2023-01-06T06:36:15.992Z,3.23
2023-01-06T06:38:44.835Z,1.90
2023-01-06T06:41:13.750Z,2.13
2023-01-06T06:43:42.711Z,2.63
2023-01-06T06:46:11.412Z,2.80
2023-01-06T06:48:39.938Z,2.00
2023-01-06T06:51:09.304Z,1.93
2023-01-06T06:53:39.778Z,2.10
2023-01-06T06:56:09.271Z,2.03
2023-01-06T06:58:38.380Z,1.90
2023-01-06T07:01:07.255Z,2.57
2023-01-06T07:03:35.905Z,2.10
2023-01-06T07:06:05.413Z,2.43
2023-01-06T07:08:34.227Z,2.50
2023-01-06T07:11:04.049Z,2.50
2023-01-06T07:13:32.420Z,2.53
2023-01-06T07:16:00.575Z,2.77
2023-01-06T07:18:28.700Z,2.10
2023-01-06T07:20:56.955Z,2.40
2023-01-06T07:23:25.810Z,1.90
2023-01-06T07:25:54.931Z,2.30
2023-01-06T07:28:24.542Z,4.13
2023-01-06T07:30:52.865Z,1.80
2023-01-06T07:33:21.434Z,2.10
2023-01-06T07:35:52.989Z,2.10
2023-01-06T07:38:21.630Z,3.30
2023-01-06T07:40:50.051Z,2.00
2023-01-06T07:43:18.389Z,2.20
2023-01-06T07:45:49.347Z,1.90
2023-01-06T07:48:17.912Z,2.40
2023-01-06T07:50:46.088Z,2.50
2023-01-06T07:53:14.818Z,2.57
2023-01-06T07:55:42.945Z,3.00
2023-01-06T07:58:11.528Z,1.90
2023-01-06T08:00:39.690Z,2.07
2023-01-06T08:03:09.619Z,2.30
2023-01-06T08:05:39.071Z,2.37
2023-01-06T08:08:07.219Z,2.63
2023-01-06T08:10:35.459Z,2.07
2023-01-06T08:13:03.921Z,2.20
2023-01-06T08:15:32.165Z,2.30
2023-01-06T08:18:00.356Z,1.97
2023-01-06T08:20:29.904Z,2.33
2023-01-06T08:22:59.025Z,2.40
2023-01-06T08:25:27.458Z,3.47
2023-01-06T08:27:56.260Z,2.57
2023-01-06T08:30:24.387Z,2.10
2023-01-06T08:32:52.749Z,2.63
2023-01-06T08:35:20.884Z,2.23
2023-01-06T08:37:50.395Z,2.33
2023-01-06T08:40:19.343Z,2.40
2023-01-06T08:42:47.495Z,2.23
2023-01-06T08:45:15.661Z,2.60
2023-01-06T08:47:43.845Z,2.10
2023-01-06T08:50:12.149Z,2.40
2023-01-06T08:52:40.464Z,2.10
2023-01-06T08:55:10.176Z,2.70
2023-01-06T08:57:38.294Z,3.07
2023-01-06T09:00:07.959Z,2.80
2023-01-06T09:02:36.443Z,2.60
2023-01-06T09:05:06.004Z,2.50
2023-01-06T09:07:34.263Z,2.33
2023-01-06T09:10:02.403Z,1.87
2023-01-06T09:12:31.954Z,3.20
2023-01-06T09:15:00.081Z,2.77
2023-01-06T09:17:28.244Z,3.60
2023-01-06T09:19:56.344Z,2.57
2023-01-06T09:22:24.623Z,2.73
2023-01-06T09:24:52.757Z,2.60
2023-01-06T09:27:22.765Z,3.03
2023-01-06T09:29:53.006Z,2.43
2023-01-06T09:32:21.125Z,2.90
2023-01-06T09:34:49.532Z,2.70
2023-01-06T09:37:17.661Z,2.47
2023-01-06T09:39:45.863Z,3.67
2023-01-06T09:42:31.408Z,3.70
2023-01-06T09:45:05.868Z,3.37
2023-01-06T09:47:39.040Z,6.27
2023-01-06T09:50:11.327Z,4.13
2023-01-06T09:52:42.602Z,5.63
2023-01-06T09:55:16.496Z,4.87
2023-01-06T09:57:48.344Z,5.40
2023-01-06T10:00:28.386Z,3.53
2023-01-06T10:02:58.148Z,7.10
2023-01-06T10:05:32.801Z,3.30
2023-01-06T10:08:07.854Z,3.67
2023-01-06T10:10:43.276Z,6.17
2023-01-06T10:13:28.520Z,3.77
2023-01-06T10:16:06.119Z,3.07
2023-01-06T10:18:42.633Z,2.93
2023-01-06T10:21:18.417Z,2.73
2023-01-06T10:24:08.747Z,2.80
2023-01-06T10:26:43.938Z,4.50
2023-01-06T10:29:16.104Z,4.60
2023-01-06T10:31:47.331Z,4.30
2023-01-06T10:34:21.572Z,2.80
2023-01-06T10:36:54.365Z,2.97
2023-01-06T10:39:25.552Z,2.80
2023-01-06T10:42:17.974Z,3.30
2023-01-06T10:44:46.162Z,3.83
2023-01-06T10:47:24.118Z,3.60
2023-01-06T10:49:52.409Z,3.37
2023-01-06T10:52:22.079Z,3.40
2023-01-06T10:54:53.232Z,3.30
2023-01-06T10:57:24.553Z,4.80
2023-01-06T11:00:16.005Z,3.90
2023-01-06T11:02:50.557Z,2.97
2023-01-06T11:05:21.115Z,6.33
2023-01-06T11:08:01.658Z,6.10
2023-01-06T11:10:39.269Z,3.60
2023-01-06T11:13:19.029Z,4.80
2023-01-06T11:15:47.873Z,5.67
2023-01-06T11:18:24.006Z,7.10
2023-01-06T11:21:23.126Z,6.70
2023-01-06T11:23:51.477Z,4.60
2023-01-06T11:26:22.215Z,4.90
2023-01-06T11:28:54.379Z,4.07
2023-01-06T11:31:25.947Z,5.30
2023-01-06T11:33:57.680Z,6.03
2023-01-06T11:36:27.879Z,7.83
2023-01-06T11:38:59.484Z,4.87
2023-01-06T11:41:32.058Z,6.43
2023-01-06T11:44:10.078Z,4.50
2023-01-06T11:46:41.286Z,5.60
2023-01-06T11:49:17.057Z,8.30
2023-01-06T11:51:51.231Z,5.80
2023-01-06T11:54:32.159Z,7.13
2023-01-06T11:57:17.560Z,5.40
2023-01-06T12:00:06.855Z,4.77
2023-01-06T12:02:46.951Z,4.30
2023-01-06T12:05:26.625Z,5.47
2023-01-06T12:07:58.455Z,5.30
2023-01-06T12:10:32.064Z,6.03
2023-01-06T12:13:00.350Z,5.23
2023-01-06T12:15:31.742Z,4.20
2023-01-06T12:18:04.858Z,4.57
2023-01-06T12:20:36.866Z,5.93
2023-01-06T12:23:07.368Z,5.77
2023-01-06T12:25:40.177Z,4.07
2023-01-06T12:28:15.486Z,6.53
2023-01-06T12:30:54.298Z,4.53
2023-01-06T12:33:26.749Z,6.23
2023-01-06T12:36:00.833Z,6.10
2023-01-06T12:38:40.237Z,4.80
2023-01-06T12:41:17.252Z,6.07
2023-01-06T12:43:54.407Z,4.60
2023-01-06T12:46:30.208Z,4.93
2023-01-06T12:49:00.748Z,5.90
2023-01-06T12:51:36.943Z,4.70
2023-01-06T12:54:16.254Z,5.60
2023-01-06T12:57:02.615Z,5.37
2023-01-06T12:59:38.295Z,7.30
2023-01-06T13:02:20.513Z,5.10
2023-01-06T13:05:12.576Z,6.50
2023-01-06T13:07:49.449Z,5.67
2023-01-06T13:10:26.183Z,4.63
2023-01-06T13:13:32.993Z,5.13
2023-01-06T13:16:06.158Z,5.50
2023-01-06T13:18:40.711Z,6.00
2023-01-06T13:21:11.892Z,5.57
2023-01-06T13:24:02.748Z,10.53
2023-01-06T13:26:52.813Z,9.13
2023-01-06T13:29:33.420Z,6.40
2023-01-06T13:32:18.352Z,7.97
2023-01-06T13:35:06.151Z,6.70
2023-01-06T13:37:37.520Z,4.83
2023-01-06T13:40:12.480Z,5.20
2023-01-06T13:42:46.448Z,5.30
2023-01-06T13:45:21.130Z,6.10
2023-01-06T13:47:51.343Z,4.53
2023-01-06T13:50:22.882Z,4.80
2023-01-06T13:52:52.383Z,6.07
2023-01-06T13:55:28.597Z,7.10
2023-01-06T13:57:57.446Z,6.28
2023-01-06T14:00:27.653Z,5.53
2023-01-06T14:03:15.220Z,10.00
2023-01-06T14:05:52.677Z,5.90
2023-01-06T14:08:24.421Z,6.50
2023-01-06T14:11:03.302Z,5.57
2023-01-06T14:13:36.061Z,6.70
2023-01-06T14:16:08.965Z,9.63
2023-01-06T14:18:41.640Z,6.83
2023-01-06T14:21:27.792Z,6.57
2023-01-06T14:24:02.167Z,6.50
2023-01-06T14:26:50.679Z,6.47
2023-01-06T14:29:57.098Z,4.60
2023-01-06T14:33:03.064Z,7.47
2023-01-06T14:35:36.341Z,4.30
2023-01-06T14:38:07.883Z,3.77
2023-01-06T14:40:41.046Z,3.63
2023-01-06T14:43:42.425Z,4.30
2023-01-06T14:46:18.676Z,4.13
2023-01-06T14:48:51.816Z,5.97
2023-01-06T14:51:22.377Z,4.57
2023-01-06T14:54:00.169Z,4.73
2023-01-06T14:56:31.219Z,4.43
2023-01-06T14:59:23.101Z,4.30
2023-01-06T15:02:16.109Z,4.67
2023-01-06T15:04:56.382Z,3.00
2023-01-06T15:07:25.073Z,4.00
2023-01-06T15:09:54.453Z,3.60
2023-01-06T15:12:24.905Z,6.30
2023-01-06T15:14:54.516Z,3.70
2023-01-06T15:17:23.703Z,3.73
2023-01-06T15:19:54.255Z,4.37
2023-01-06T15:22:25.680Z,3.87
2023-01-06T15:24:56.019Z,3.37
2023-01-06T15:27:24.894Z,4.30
2023-01-06T15:29:56.575Z,4.60
2023-01-06T15:32:28.396Z,3.67
2023-01-06T15:34:59.713Z,6.83
2023-01-06T15:37:34.851Z,3.37
2023-01-06T15:40:05.541Z,4.80
2023-01-06T15:42:36.170Z,3.30
2023-01-06T15:45:07.782Z,2.50
2023-01-06T15:47:39.445Z,6.20
2023-01-06T15:50:11.031Z,4.43
2023-01-06T15:52:45.012Z,3.03
2023-01-06T15:55:24.227Z,3.00
2023-01-06T15:57:55.888Z,3.07
2023-01-06T16:00:27.528Z,3.50
2023-01-06T16:02:56.278Z,3.00
2023-01-06T16:05:36.941Z,7.60
2023-01-06T16:08:08.089Z,8.60
2023-01-06T16:10:39.001Z,3.00
2023-01-06T16:13:18.727Z,3.03
2023-01-06T16:15:51.769Z,3.30
2023-01-06T16:18:29.554Z,3.60
2023-01-06T16:20:58.590Z,2.67
2023-01-06T16:23:30.779Z,3.23
2023-01-06T16:26:08.582Z,4.43
2023-01-06T16:28:41.140Z,3.80
2023-01-06T16:31:12.933Z,3.07
2023-01-06T16:33:42.754Z,3.53
2023-01-06T16:36:15.651Z,3.73
2023-01-06T16:38:44.182Z,3.03
2023-01-06T16:41:17.636Z,3.50
2023-01-06T16:43:47.024Z,3.33
2023-01-06T16:46:21.195Z,3.03
2023-01-06T16:48:51.819Z,4.40
2023-01-06T16:51:20.081Z,3.50
2023-01-06T16:53:49.848Z,4.20
2023-01-06T16:56:22.260Z,3.20
2023-01-06T16:58:51.523Z,7.60
2023-01-06T17:01:23.400Z,5.07
2023-01-06T17:03:57.454Z,3.93
2023-01-06T17:06:28.721Z,3.17
2023-01-06T17:09:01.437Z,4.53
2023-01-06T17:11:33.369Z,4.00
2023-01-06T17:14:04.908Z,4.13
2023-01-06T17:16:37.803Z,5.80
2023-01-06T17:19:19.568Z,9.20
2023-01-06T17:21:49.989Z,3.37
2023-01-06T17:24:22.996Z,3.20
2023-01-06T17:26:53.899Z,4.47
2023-01-06T17:29:22.935Z,8.33
2023-01-06T17:31:56.121Z,3.37
2023-01-06T17:34:29.437Z,5.13
2023-01-06T17:36:57.854Z,6.23
2023-01-06T17:39:29.086Z,2.77
2023-01-06T17:42:04.265Z,2.30
2023-01-06T17:44:36.977Z,3.17
2023-01-06T17:47:13.610Z,4.33
2023-01-06T17:49:41.874Z,3.23
2023-01-06T17:52:18.408Z,5.33
2023-01-06T17:55:12.078Z,7.03
2023-01-06T17:57:42.251Z,10.20
2023-01-06T18:00:20.105Z,11.90
2023-01-06T18:02:54.602Z,13.00
2023-01-06T18:05:57.877Z,25.23
2023-01-06T18:08:27.507Z,13.93
2023-01-06T18:11:02.215Z,35.07
2023-01-06T18:13:36.592Z,16.77
2023-01-06T18:16:09.809Z,28.20
2023-01-06T18:18:40.906Z,31.83
2023-01-06T18:21:28.264Z,41.47
2023-01-06T18:23:57.226Z,18.40
2023-01-06T18:26:37.576Z,22.83
2023-01-06T18:29:16.369Z,16.83
2023-01-06T18:31:45.354Z,26.27
2023-01-06T18:34:36.231Z,24.47
2023-01-06T18:37:04.582Z,17.50
2023-01-06T18:39:39.901Z,18.97
2023-01-06T18:42:23.111Z,15.13
2023-01-06T18:44:53.143Z,25.03
2023-01-06T18:47:24.052Z,21.17
2023-01-06T18:49:59.254Z,16.37
2023-01-06T18:52:39.789Z,17.30
2023-01-06T18:55:21.835Z,19.77
2023-01-06T18:57:59.196Z,15.60
2023-01-06T19:00:39.330Z,18.60
2023-01-06T19:03:33.236Z,19.33
2023-01-06T19:06:25.653Z,14.87
2023-01-06T19:08:56.147Z,15.87
2023-01-06T19:11:25.758Z,13.63
2023-01-06T19:13:56.587Z,13.97
2023-01-06T19:16:35.629Z,17.50
2023-01-06T19:19:24.688Z,15.97
2023-01-06T19:22:02.448Z,23.30
2023-01-06T19:24:39.732Z,12.60
2023-01-06T19:27:32.867Z,17.73
2023-01-06T19:30:35.657Z,18.03
2023-01-06T19:33:34.375Z,11.53
2023-01-06T19:36:39.548Z,8.90
2023-01-06T19:39:26.249Z,8.20
2023-01-06T19:41:56.903Z,16.53
2023-01-06T19:44:30.437Z,14.87
2023-01-06T19:46:58.675Z,11.17
2023-01-06T19:49:37.666Z,11.63
2023-01-06T19:52:21.275Z,7.77
2023-01-06T19:54:50.799Z,8.97
2023-01-06T19:57:27.018Z,9.70
2023-01-06T19:59:57.817Z,10.00
2023-01-06T20:02:29.879Z,6.03
2023-01-06T20:04:58.418Z,4.97
2023-01-06T20:07:26.573Z,5.77
2023-01-06T20:09:56.241Z,9.40
2023-01-06T20:12:24.577Z,3.53
2023-01-06T20:14:52.746Z,6.40
2023-01-06T20:17:20.877Z,8.53
2023-01-06T20:19:49.038Z,8.70
2023-01-06T20:22:17.181Z,7.07
2023-01-06T20:24:47.501Z,5.43
2023-01-06T20:27:18.032Z,7.50
2023-01-06T20:29:46.346Z,8.03
2023-01-06T20:32:14.470Z,7.43
2023-01-06T20:34:42.638Z,13.47
2023-01-06T20:37:10.750Z,7.10
2023-01-06T20:39:38.928Z,5.13
2023-01-06T20:42:07.178Z,7.83
2023-01-06T20:44:36.779Z,5.30
2023-01-06T20:47:04.970Z,7.47
2023-01-06T20:49:33.175Z,6.67
2023-01-06T20:52:01.323Z,2.60
2023-01-06T20:54:29.490Z,8.23
2023-01-06T20:56:57.901Z,5.03
2023-01-06T20:59:26.149Z,9.73
2023-01-06T21:01:55.793Z,3.73
2023-01-06T21:04:24.518Z,5.03
2023-01-06T21:06:52.787Z,5.30
2023-01-06T21:09:20.927Z,4.40
2023-01-06T21:11:49.081Z,3.47
2023-01-06T21:14:17.216Z,5.47
2023-01-06T21:16:46.452Z,2.70
2023-01-06T21:19:16.174Z,3.83
2023-01-06T21:21:44.390Z,4.17
2023-01-06T21:24:12.765Z,4.80
2023-01-06T21:26:40.926Z,4.50
2023-01-06T21:29:09.071Z,3.70
2023-01-06T21:31:37.374Z,2.80
2023-01-06T21:34:05.505Z,5.63
2023-01-06T21:36:35.014Z,4.80
2023-01-06T21:39:03.560Z,5.37
2023-01-06T21:41:49.274Z,2.33
2023-01-06T21:44:17.393Z,3.10
2023-01-06T21:46:45.538Z,3.60
2023-01-06T21:49:13.696Z,4.90
2023-01-06T21:51:43.240Z,8.60
2023-01-06T21:54:11.408Z,4.10
2023-01-06T21:56:39.699Z,3.83
2023-01-06T21:59:08.030Z,4.27
2023-01-06T22:01:36.330Z,6.13
2023-01-06T22:04:04.886Z,4.10
2023-01-06T22:06:33.124Z,3.90
2023-01-06T22:09:06.386Z,3.07
2023-01-06T22:11:36.698Z,2.80
2023-01-06T22:14:06.471Z,3.87
2023-01-06T22:16:34.862Z,2.73
2023-01-06T22:19:03.275Z,3.50
2023-01-06T22:21:31.479Z,6.03
2023-01-06T22:23:59.767Z,3.73
2023-01-06T22:26:29.261Z,5.70
2023-01-06T22:28:57.409Z,5.50
2023-01-06T22:31:25.562Z,3.00
2023-01-06T22:33:53.759Z,2.77
2023-01-06T22:36:22.898Z,5.23
2023-01-06T22:38:52.276Z,3.20
2023-01-06T22:41:20.475Z,4.60
2023-01-06T22:43:50.681Z,4.80
2023-01-06T22:46:19.626Z,4.20
2023-01-06T22:48:47.770Z,3.60
2023-01-06T22:51:15.924Z,2.47
2023-01-06T22:53:44.076Z,2.30
2023-01-06T22:56:13.305Z,4.93
2023-01-06T22:58:42.030Z,4.60
2023-01-06T23:01:11.756Z,3.97
2023-01-06T23:03:40.097Z,2.70
2023-01-06T23:06:10.408Z,4.23
2023-01-06T23:08:48.129Z,3.70
2023-01-06T23:11:28.215Z,3.53
2023-01-06T23:13:58.225Z,2.37
2023-01-06T23:16:30.016Z,4.00
2023-01-06T23:18:58.592Z,3.90
2023-01-06T23:21:27.870Z,3.17
2023-01-06T23:23:56.769Z,1.83
2023-01-06T23:26:26.674Z,2.70
2023-01-06T23:28:56.187Z,3.57
2023-01-06T23:31:28.057Z,2.00
2023-01-06T23:34:00.116Z,3.00
2023-01-06T23:36:30.921Z,2.27
2023-01-06T23:39:00.196Z,3.60
2023-01-06T23:41:31.059Z,2.20
2023-01-06T23:43:59.457Z,2.50
2023-01-06T23:46:30.768Z,2.10
2023-01-06T23:48:59.149Z,3.67
2023-01-06T23:51:30.164Z,2.00
2023-01-06T23:53:58.425Z,2.60
2023-01-06T23:56:28.406Z,2.17
2023-01-06T23:58:59.267Z,5.83
